Airfield :
LOGIN :

Register | Disclaimer

   EN    FR    IT 

 










Legend :    VFR   Marginal VFR   IFR   Intensive IFR   Very Intensive IFR
Visi :
Ceiling :
>= 8 km
>= 3000ft
5 to 8 km
1000 to 3000 ft
1500m to 5 km
500 to 1000 ft
800 to 1500m
200 to 500 ft
< 800m
< 200 ft
Symbols :   Thunderstorms  Fog  Heavy snow  Heavy precipitations  Wind > 20 kt
SIGMETs :     Misc.  Thunderstorms  Icing  Turbulence  Mountain Waves  Volcanic Ashes






- Airport Elevation : 598 ft
- IATA code : BQH


EGKB - Biggin Hill

CURRENT METAR :
  • 311050Z 08014KT 040V110 9999 FEW048 21/06 Q1023

EXPIRED METARs :
  • 311020Z 07014G26KT 030V100 9999 FEW048 21/06 Q1023
  • 310950Z 08011KT 040V110 CAVOK 21/07 Q1023
  • 310920Z 06010KT 020V120 CAVOK 20/08 Q1023
  • 310850Z 07009KT 030V100 CAVOK 19/09 Q1023
  • 310820Z 06008KT 030V090 CAVOK 19/11 Q1023
  • 310750Z 06007KT 030V100 CAVOK 17/12 Q1023

TAF AMD TAF EGKB
Valid from the 31 at 10:00 until the 31 at 18:00 UTC


311028Z 3110/3118 08010KT CAVOK
TEMPO 3110/3118 07015G25KT



MET'MAP, your aeronautical weather chart ! - Copyright ORBIFLY December 2007 - Disclaimer

ORBIFLY MET'MAP TEAM :

Programming & Development : Alexandra Zaïnal
Concept & original design : Baudouin d'Aumeries
Assistance for programming : Marc-Olivier Méhu
Technical & hardware support : Manuel Goepfert

Contact : metmap@orbifly.com




SOURCES & CREDITS :

   NOAA